sensor_id;sensor_type;location;lat;lon;timestamp;temperature;humidity
35127;DHT22;21300;52.006;5.798;2023-03-05T00:02:20;5.50;99.90
35127;DHT22;21300;52.006;5.798;2023-03-05T00:04:46;5.40;99.90
35127;DHT22;21300;52.006;5.798;2023-03-05T00:07:12;5.50;99.90
35127;DHT22;21300;52.006;5.798;2023-03-05T00:09:39;5.40;99.90
35127;DHT22;21300;52.006;5.798;2023-03-05T00:12:05;5.40;99.90
35127;DHT22;21300;52.006;5.798;2023-03-05T00:14:31;5.40;99.90
35127;DHT22;21300;52.006;5.798;2023-03-05T00:16:56;5.40;99.90
35127;DHT22;21300;52.006;5.798;2023-03-05T00:19:22;5.40;99.90
35127;DHT22;21300;52.006;5.798;2023-03-05T00:21:47;5.40;99.90
35127;DHT22;21300;52.006;5.798;2023-03-05T00:24:15;5.40;99.90
35127;DHT22;21300;52.006;5.798;2023-03-05T00:26:43;5.40;99.90
35127;DHT22;21300;52.006;5.798;2023-03-05T00:29:11;5.40;99.90
35127;DHT22;21300;52.006;5.798;2023-03-05T00:31:38;5.40;99.90
35127;DHT22;21300;52.006;5.798;2023-03-05T00:34:07;5.40;99.90
35127;DHT22;21300;52.006;5.798;2023-03-05T00:36:33;5.40;99.90
35127;DHT22;21300;52.006;5.798;2023-03-05T00:39:00;5.40;99.90
35127;DHT22;21300;52.006;5.798;2023-03-05T00:41:26;5.40;99.90
35127;DHT22;21300;52.006;5.798;2023-03-05T00:43:51;5.40;99.90
35127;DHT22;21300;52.006;5.798;2023-03-05T00:46:17;5.40;99.90
35127;DHT22;21300;52.006;5.798;2023-03-05T00:48:43;5.30;99.90
35127;DHT22;21300;52.006;5.798;2023-03-05T00:51:08;5.30;99.90
35127;DHT22;21300;52.006;5.798;2023-03-05T00:53:34;5.30;99.90
35127;DHT22;21300;52.006;5.798;2023-03-05T00:56:00;5.30;99.90
35127;DHT22;21300;52.006;5.798;2023-03-05T00:58:26;5.30;99.90
35127;DHT22;21300;52.006;5.798;2023-03-05T01:00:51;5.30;99.90
35127;DHT22;21300;52.006;5.798;2023-03-05T01:03:18;5.30;99.90
35127;DHT22;21300;52.006;5.798;2023-03-05T01:05:44;5.30;99.90
35127;DHT22;21300;52.006;5.798;2023-03-05T01:08:09;5.30;99.90
35127;DHT22;21300;52.006;5.798;2023-03-05T01:10:35;5.30;99.90
35127;DHT22;21300;52.006;5.798;2023-03-05T01:13:01;5.30;99.90
35127;DHT22;21300;52.006;5.798;2023-03-05T01:15:27;5.30;99.90
35127;DHT22;21300;52.006;5.798;2023-03-05T01:17:52;5.30;99.90
35127;DHT22;21300;52.006;5.798;2023-03-05T01:20:20;5.20;99.90
35127;DHT22;21300;52.006;5.798;2023-03-05T01:22:46;5.20;99.90
35127;DHT22;21300;52.006;5.798;2023-03-05T01:25:13;5.20;99.90
35127;DHT22;21300;52.006;5.798;2023-03-05T01:27:39;5.20;99.90
35127;DHT22;21300;52.006;5.798;2023-03-05T01:30:05;5.20;99.90
35127;DHT22;21300;52.006;5.798;2023-03-05T01:32:32;5.20;99.90
35127;DHT22;21300;52.006;5.798;2023-03-05T01:34:59;5.20;99.90
35127;DHT22;21300;52.006;5.798;2023-03-05T01:37:25;5.20;99.90
35127;DHT22;21300;52.006;5.798;2023-03-05T01:39:51;5.20;99.90
35127;DHT22;21300;52.006;5.798;2023-03-05T01:42:16;5.20;99.90
35127;DHT22;21300;52.006;5.798;2023-03-05T01:45:10;5.20;99.90
35127;DHT22;21300;52.006;5.798;2023-03-05T01:47:36;5.20;99.90
35127;DHT22;21300;52.006;5.798;2023-03-05T01:50:08;5.20;99.90
35127;DHT22;21300;52.006;5.798;2023-03-05T01:52:36;5.20;99.90
35127;DHT22;21300;52.006;5.798;2023-03-05T01:55:12;5.20;99.90
35127;DHT22;21300;52.006;5.798;2023-03-05T01:57:45;5.20;99.90
35127;DHT22;21300;52.006;5.798;2023-03-05T02:00:15;5.20;99.90
35127;DHT22;21300;52.006;5.798;2023-03-05T02:02:46;5.20;99.90
35127;DHT22;21300;52.006;5.798;2023-03-05T02:05:23;5.20;99.90
35127;DHT22;21300;52.006;5.798;2023-03-05T02:07:59;5.10;99.90
35127;DHT22;21300;52.006;5.798;2023-03-05T02:10:28;5.10;99.90
35127;DHT22;21300;52.006;5.798;2023-03-05T02:12:55;5.10;99.90
35127;DHT22;21300;52.006;5.798;2023-03-05T02:15:22;5.20;99.90
35127;DHT22;21300;52.006;5.798;2023-03-05T02:17:48;5.10;99.90
35127;DHT22;21300;52.006;5.798;2023-03-05T02:20:17;5.10;99.90
35127;DHT22;21300;52.006;5.798;2023-03-05T02:22:42;5.10;99.90
35127;DHT22;21300;52.006;5.798;2023-03-05T02:27:40;5.10;99.90
35127;DHT22;21300;52.006;5.798;2023-03-05T02:30:07;5.10;99.90
35127;DHT22;21300;52.006;5.798;2023-03-05T02:32:33;5.10;99.90
35127;DHT22;21300;52.006;5.798;2023-03-05T02:34:58;5.10;99.90
35127;DHT22;21300;52.006;5.798;2023-03-05T02:37:24;5.10;99.90
35127;DHT22;21300;52.006;5.798;2023-03-05T02:39:49;5.10;99.90
35127;DHT22;21300;52.006;5.798;2023-03-05T02:42:15;5.10;99.90
35127;DHT22;21300;52.006;5.798;2023-03-05T02:44:41;5.10;99.90
35127;DHT22;21300;52.006;5.798;2023-03-05T02:47:06;5.10;99.90
35127;DHT22;21300;52.006;5.798;2023-03-05T02:49:32;5.10;99.90
35127;DHT22;21300;52.006;5.798;2023-03-05T02:51:57;5.10;99.90
35127;DHT22;21300;52.006;5.798;2023-03-05T02:54:23;5.10;99.90
35127;DHT22;21300;52.006;5.798;2023-03-05T02:56:49;5.10;99.90
35127;DHT22;21300;52.006;5.798;2023-03-05T02:59:15;5.10;99.90
35127;DHT22;21300;52.006;5.798;2023-03-05T03:01:40;5.00;99.90
35127;DHT22;21300;52.006;5.798;2023-03-05T03:04:06;5.00;99.90
35127;DHT22;21300;52.006;5.798;2023-03-05T03:06:31;5.00;99.90
35127;DHT22;21300;52.006;5.798;2023-03-05T03:08:57;5.00;99.90
35127;DHT22;21300;52.006;5.798;2023-03-05T03:11:23;5.00;99.90
35127;DHT22;21300;52.006;5.798;2023-03-05T03:13:48;5.00;99.90
35127;DHT22;21300;52.006;5.798;2023-03-05T03:16:14;5.00;99.90
35127;DHT22;21300;52.006;5.798;2023-03-05T03:18:40;5.00;99.90
35127;DHT22;21300;52.006;5.798;2023-03-05T03:21:06;5.00;99.90
35127;DHT22;21300;52.006;5.798;2023-03-05T03:23:33;5.00;99.90
35127;DHT22;21300;52.006;5.798;2023-03-05T03:25:59;5.00;99.90
35127;DHT22;21300;52.006;5.798;2023-03-05T03:28:24;5.00;99.90
35127;DHT22;21300;52.006;5.798;2023-03-05T03:30:50;5.00;99.90
35127;DHT22;21300;52.006;5.798;2023-03-05T03:33:16;5.00;99.90
35127;DHT22;21300;52.006;5.798;2023-03-05T03:35:43;5.00;99.90
35127;DHT22;21300;52.006;5.798;2023-03-05T03:38:10;4.90;99.90
35127;DHT22;21300;52.006;5.798;2023-03-05T03:40:37;5.00;99.90
35127;DHT22;21300;52.006;5.798;2023-03-05T03:43:03;4.90;99.90
35127;DHT22;21300;52.006;5.798;2023-03-05T03:45:28;4.90;99.90
35127;DHT22;21300;52.006;5.798;2023-03-05T03:47:54;4.90;99.90
35127;DHT22;21300;52.006;5.798;2023-03-05T03:50:19;4.90;99.90
35127;DHT22;21300;52.006;5.798;2023-03-05T03:52:46;4.90;99.90
35127;DHT22;21300;52.006;5.798;2023-03-05T03:55:11;4.90;99.90
35127;DHT22;21300;52.006;5.798;2023-03-05T03:57:37;5.00;99.90
35127;DHT22;21300;52.006;5.798;2023-03-05T04:00:04;4.90;99.90
35127;DHT22;21300;52.006;5.798;2023-03-05T04:02:33;4.90;99.90
35127;DHT22;21300;52.006;5.798;2023-03-05T04:04:58;4.90;99.90
35127;DHT22;21300;52.006;5.798;2023-03-05T04:07:24;4.90;99.90
35127;DHT22;21300;52.006;5.798;2023-03-05T04:09:49;4.90;99.90
35127;DHT22;21300;52.006;5.798;2023-03-05T04:12:15;4.90;99.90
35127;DHT22;21300;52.006;5.798;2023-03-05T04:14:44;4.90;99.90
35127;DHT22;21300;52.006;5.798;2023-03-05T04:17:10;4.90;99.90
35127;DHT22;21300;52.006;5.798;2023-03-05T04:19:36;4.90;99.90
35127;DHT22;21300;52.006;5.798;2023-03-05T04:22:02;4.90;99.90
35127;DHT22;21300;52.006;5.798;2023-03-05T04:24:27;4.90;99.90
35127;DHT22;21300;52.006;5.798;2023-03-05T04:26:53;4.90;99.90
35127;DHT22;21300;52.006;5.798;2023-03-05T04:29:19;4.90;99.90
35127;DHT22;21300;52.006;5.798;2023-03-05T04:31:44;4.90;99.90
35127;DHT22;21300;52.006;5.798;2023-03-05T04:34:10;4.80;99.90
35127;DHT22;21300;52.006;5.798;2023-03-05T04:36:35;4.80;99.90
35127;DHT22;21300;52.006;5.798;2023-03-05T04:39:02;4.80;99.90
35127;DHT22;21300;52.006;5.798;2023-03-05T04:41:27;4.80;99.90
35127;DHT22;21300;52.006;5.798;2023-03-05T04:43:53;4.80;99.90
35127;DHT22;21300;52.006;5.798;2023-03-05T04:46:19;4.80;99.90
35127;DHT22;21300;52.006;5.798;2023-03-05T04:48:44;4.80;99.90
35127;DHT22;21300;52.006;5.798;2023-03-05T04:51:10;4.80;99.90
35127;DHT22;21300;52.006;5.798;2023-03-05T04:53:35;4.80;99.90
35127;DHT22;21300;52.006;5.798;2023-03-05T04:56:01;4.80;99.90
35127;DHT22;21300;52.006;5.798;2023-03-05T04:58:26;4.80;99.90
35127;DHT22;21300;52.006;5.798;2023-03-05T05:00:52;4.80;99.90
35127;DHT22;21300;52.006;5.798;2023-03-05T05:03:17;4.80;99.90
35127;DHT22;21300;52.006;5.798;2023-03-05T05:05:43;4.80;99.90
35127;DHT22;21300;52.006;5.798;2023-03-05T05:08:09;4.80;99.90
35127;DHT22;21300;52.006;5.798;2023-03-05T05:10:35;4.80;99.90
35127;DHT22;21300;52.006;5.798;2023-03-05T05:13:04;4.80;99.90
35127;DHT22;21300;52.006;5.798;2023-03-05T05:15:30;4.80;99.90
35127;DHT22;21300;52.006;5.798;2023-03-05T05:17:57;4.80;99.90
35127;DHT22;21300;52.006;5.798;2023-03-05T05:20:23;4.80;99.90
35127;DHT22;21300;52.006;5.798;2023-03-05T05:22:48;4.80;99.90
35127;DHT22;21300;52.006;5.798;2023-03-05T05:25:14;4.80;99.90
35127;DHT22;21300;52.006;5.798;2023-03-05T05:27:40;4.80;99.90
35127;DHT22;21300;52.006;5.798;2023-03-05T05:30:06;4.80;99.90
35127;DHT22;21300;52.006;5.798;2023-03-05T05:32:32;4.80;99.90
35127;DHT22;21300;52.006;5.798;2023-03-05T05:34:58;4.70;99.90
35127;DHT22;21300;52.006;5.798;2023-03-05T05:37:24;4.80;99.90
35127;DHT22;21300;52.006;5.798;2023-03-05T05:39:50;4.80;99.90
35127;DHT22;21300;52.006;5.798;2023-03-05T05:42:17;4.80;99.90
35127;DHT22;21300;52.006;5.798;2023-03-05T05:44:43;4.70;99.90
35127;DHT22;21300;52.006;5.798;2023-03-05T05:47:09;4.70;99.90
35127;DHT22;21300;52.006;5.798;2023-03-05T05:49:35;4.80;99.90
35127;DHT22;21300;52.006;5.798;2023-03-05T05:52:00;4.70;99.90
35127;DHT22;21300;52.006;5.798;2023-03-05T05:54:26;4.70;99.90
35127;DHT22;21300;52.006;5.798;2023-03-05T05:56:51;4.70;99.90
35127;DHT22;21300;52.006;5.798;2023-03-05T05:59:17;4.70;99.90
35127;DHT22;21300;52.006;5.798;2023-03-05T06:01:43;4.70;99.90
35127;DHT22;21300;52.006;5.798;2023-03-05T06:04:08;4.70;99.90
35127;DHT22;21300;52.006;5.798;2023-03-05T06:06:34;4.70;99.90
35127;DHT22;21300;52.006;5.798;2023-03-05T06:09:00;4.70;99.90
35127;DHT22;21300;52.006;5.798;2023-03-05T06:11:26;4.70;99.90
35127;DHT22;21300;52.006;5.798;2023-03-05T06:13:52;4.70;99.90
35127;DHT22;21300;52.006;5.798;2023-03-05T06:16:20;4.70;99.90
35127;DHT22;21300;52.006;5.798;2023-03-05T06:18:46;4.70;99.90
35127;DHT22;21300;52.006;5.798;2023-03-05T06:21:14;4.70;99.90
35127;DHT22;21300;52.006;5.798;2023-03-05T06:23:43;4.70;99.90
35127;DHT22;21300;52.006;5.798;2023-03-05T06:26:11;4.70;99.90
35127;DHT22;21300;52.006;5.798;2023-03-05T06:28:37;4.70;99.90
35127;DHT22;21300;52.006;5.798;2023-03-05T06:31:05;4.70;99.90
35127;DHT22;21300;52.006;5.798;2023-03-05T06:33:34;4.70;99.90
35127;DHT22;21300;52.006;5.798;2023-03-05T06:36:03;4.60;99.90
35127;DHT22;21300;52.006;5.798;2023-03-05T06:38:29;4.70;99.90
35127;DHT22;21300;52.006;5.798;2023-03-05T06:40:54;4.70;99.90
35127;DHT22;21300;52.006;5.798;2023-03-05T06:43:20;4.60;99.90
35127;DHT22;21300;52.006;5.798;2023-03-05T06:45:46;4.60;99.90
35127;DHT22;21300;52.006;5.798;2023-03-05T06:48:11;4.60;99.90
35127;DHT22;21300;52.006;5.798;2023-03-05T06:50:37;4.60;99.90
35127;DHT22;21300;52.006;5.798;2023-03-05T06:53:03;4.60;99.90
35127;DHT22;21300;52.006;5.798;2023-03-05T06:55:29;4.60;99.90
35127;DHT22;21300;52.006;5.798;2023-03-05T06:57:54;4.60;99.90
35127;DHT22;21300;52.006;5.798;2023-03-05T07:00:20;4.60;99.90
35127;DHT22;21300;52.006;5.798;2023-03-05T07:02:46;4.60;99.90
35127;DHT22;21300;52.006;5.798;2023-03-05T07:05:12;4.60;99.90
35127;DHT22;21300;52.006;5.798;2023-03-05T07:07:37;4.60;99.90
35127;DHT22;21300;52.006;5.798;2023-03-05T07:10:04;4.60;99.90
35127;DHT22;21300;52.006;5.798;2023-03-05T07:12:32;4.60;99.90
35127;DHT22;21300;52.006;5.798;2023-03-05T07:14:58;4.60;99.90
35127;DHT22;21300;52.006;5.798;2023-03-05T07:17:24;4.60;99.90
35127;DHT22;21300;52.006;5.798;2023-03-05T07:19:49;4.60;99.90
35127;DHT22;21300;52.006;5.798;2023-03-05T07:22:15;4.60;99.90
35127;DHT22;21300;52.006;5.798;2023-03-05T07:24:40;4.60;99.90
35127;DHT22;21300;52.006;5.798;2023-03-05T07:27:06;4.60;99.90
35127;DHT22;21300;52.006;5.798;2023-03-05T07:29:31;4.60;99.90
35127;DHT22;21300;52.006;5.798;2023-03-05T07:31:57;4.60;99.90
35127;DHT22;21300;52.006;5.798;2023-03-05T07:34:22;4.60;99.90
35127;DHT22;21300;52.006;5.798;2023-03-05T07:36:51;4.60;99.90
35127;DHT22;21300;52.006;5.798;2023-03-05T07:39:18;4.60;99.90
35127;DHT22;21300;52.006;5.798;2023-03-05T07:41:44;4.60;99.90
35127;DHT22;21300;52.006;5.798;2023-03-05T07:44:11;4.60;99.90
35127;DHT22;21300;52.006;5.798;2023-03-05T07:46:36;4.60;99.90
35127;DHT22;21300;52.006;5.798;2023-03-05T07:49:02;4.60;99.90
35127;DHT22;21300;52.006;5.798;2023-03-05T07:51:28;4.60;99.90
35127;DHT22;21300;52.006;5.798;2023-03-05T07:53:56;4.70;99.90
35127;DHT22;21300;52.006;5.798;2023-03-05T07:56:26;4.60;99.90
35127;DHT22;21300;52.006;5.798;2023-03-05T07:58:59;4.60;99.90
35127;DHT22;21300;52.006;5.798;2023-03-05T08:01:25;4.60;99.90
35127;DHT22;21300;52.006;5.798;2023-03-05T08:03:50;4.60;99.90
35127;DHT22;21300;52.006;5.798;2023-03-05T08:06:16;4.60;99.90
35127;DHT22;21300;52.006;5.798;2023-03-05T08:08:41;4.50;99.90
35127;DHT22;21300;52.006;5.798;2023-03-05T08:11:10;4.50;99.90
35127;DHT22;21300;52.006;5.798;2023-03-05T08:13:36;4.50;99.90
35127;DHT22;21300;52.006;5.798;2023-03-05T08:16:11;4.60;99.90
35127;DHT22;21300;52.006;5.798;2023-03-05T08:18:37;4.60;99.90
35127;DHT22;21300;52.006;5.798;2023-03-05T08:21:03;4.60;99.90
35127;DHT22;21300;52.006;5.798;2023-03-05T08:23:29;4.60;99.90
35127;DHT22;21300;52.006;5.798;2023-03-05T08:25:54;4.60;99.90
35127;DHT22;21300;52.006;5.798;2023-03-05T08:28:20;4.60;99.90
35127;DHT22;21300;52.006;5.798;2023-03-05T08:30:47;4.60;99.90
35127;DHT22;21300;52.006;5.798;2023-03-05T08:33:13;4.70;99.90
35127;DHT22;21300;52.006;5.798;2023-03-05T08:35:39;4.70;99.90
35127;DHT22;21300;52.006;5.798;2023-03-05T08:38:05;4.80;99.90
35127;DHT22;21300;52.006;5.798;2023-03-05T08:40:30;4.80;99.90
35127;DHT22;21300;52.006;5.798;2023-03-05T08:42:57;4.70;99.90
35127;DHT22;21300;52.006;5.798;2023-03-05T08:45:24;4.70;99.90
35127;DHT22;21300;52.006;5.798;2023-03-05T08:47:50;4.70;99.90
35127;DHT22;21300;52.006;5.798;2023-03-05T08:50:15;4.70;99.90
35127;DHT22;21300;52.006;5.798;2023-03-05T08:52:42;4.70;99.90
35127;DHT22;21300;52.006;5.798;2023-03-05T08:55:08;4.70;99.90
35127;DHT22;21300;52.006;5.798;2023-03-05T08:57:33;4.80;99.90
35127;DHT22;21300;52.006;5.798;2023-03-05T08:59:59;4.80;99.90
35127;DHT22;21300;52.006;5.798;2023-03-05T09:02:24;4.80;99.90
35127;DHT22;21300;52.006;5.798;2023-03-05T09:04:50;4.80;99.90
35127;DHT22;21300;52.006;5.798;2023-03-05T09:07:16;4.80;99.90
35127;DHT22;21300;52.006;5.798;2023-03-05T09:09:41;4.80;99.90
35127;DHT22;21300;52.006;5.798;2023-03-05T09:12:07;4.80;99.90
35127;DHT22;21300;52.006;5.798;2023-03-05T09:14:33;4.80;99.90
35127;DHT22;21300;52.006;5.798;2023-03-05T09:16:59;4.90;99.90
35127;DHT22;21300;52.006;5.798;2023-03-05T09:19:26;4.90;99.90
35127;DHT22;21300;52.006;5.798;2023-03-05T09:21:51;4.90;99.90
35127;DHT22;21300;52.006;5.798;2023-03-05T09:24:17;4.90;99.90
35127;DHT22;21300;52.006;5.798;2023-03-05T09:26:43;4.90;99.90
35127;DHT22;21300;52.006;5.798;2023-03-05T09:29:08;4.90;99.90
35127;DHT22;21300;52.006;5.798;2023-03-05T09:31:35;4.90;99.90
35127;DHT22;21300;52.006;5.798;2023-03-05T09:34:01;4.90;99.90
35127;DHT22;21300;52.006;5.798;2023-03-05T09:36:28;5.00;99.90
35127;DHT22;21300;52.006;5.798;2023-03-05T09:38:54;5.00;99.90
35127;DHT22;21300;52.006;5.798;2023-03-05T09:52:11;5.10;99.90
35127;DHT22;21300;52.006;5.798;2023-03-05T09:54:41;5.10;99.90
35127;DHT22;21300;52.006;5.798;2023-03-05T09:57:20;5.10;99.90
35127;DHT22;21300;52.006;5.798;2023-03-05T09:59:50;5.10;99.90
35127;DHT22;21300;52.006;5.798;2023-03-05T10:02:22;5.10;99.90
35127;DHT22;21300;52.006;5.798;2023-03-05T10:04:56;5.20;99.90
35127;DHT22;21300;52.006;5.798;2023-03-05T10:07:30;5.20;99.90
35127;DHT22;21300;52.006;5.798;2023-03-05T10:12:26;5.20;99.90
35127;DHT22;21300;52.006;5.798;2023-03-05T10:14:57;5.20;99.90
35127;DHT22;21300;52.006;5.798;2023-03-05T10:26:01;5.30;99.90
35127;DHT22;21300;52.006;5.798;2023-03-05T10:34:34;5.40;99.90
35127;DHT22;21300;52.006;5.798;2023-03-05T10:37:38;5.30;99.90
35127;DHT22;21300;52.006;5.798;2023-03-05T10:40:15;5.40;99.90
35127;DHT22;21300;52.006;5.798;2023-03-05T10:45:38;5.40;99.90
35127;DHT22;21300;52.006;5.798;2023-03-05T10:48:32;5.40;99.90
35127;DHT22;21300;52.006;5.798;2023-03-05T10:51:04;5.40;99.90
35127;DHT22;21300;52.006;5.798;2023-03-05T10:54:00;5.40;99.90
35127;DHT22;21300;52.006;5.798;2023-03-05T10:56:28;5.50;99.90
35127;DHT22;21300;52.006;5.798;2023-03-05T10:58:56;5.50;99.90
35127;DHT22;21300;52.006;5.798;2023-03-05T11:01:24;5.50;99.90
35127;DHT22;21300;52.006;5.798;2023-03-05T11:06:39;5.50;99.90
35127;DHT22;21300;52.006;5.798;2023-03-05T11:09:16;5.50;99.90
35127;DHT22;21300;52.006;5.798;2023-03-05T11:11:43;5.60;99.90
35127;DHT22;21300;52.006;5.798;2023-03-05T11:14:24;5.60;99.90
35127;DHT22;21300;52.006;5.798;2023-03-05T11:16:56;5.70;99.90
35127;DHT22;21300;52.006;5.798;2023-03-05T11:19:27;5.70;99.90
35127;DHT22;21300;52.006;5.798;2023-03-05T11:22:19;5.70;99.90
35127;DHT22;21300;52.006;5.798;2023-03-05T11:27:54;5.70;99.90
35127;DHT22;21300;52.006;5.798;2023-03-05T11:30:29;5.80;99.90
35127;DHT22;21300;52.006;5.798;2023-03-05T11:33:16;5.80;99.90
35127;DHT22;21300;52.006;5.798;2023-03-05T11:35:45;5.90;99.90
35127;DHT22;21300;52.006;5.798;2023-03-05T11:38:29;5.90;99.90
35127;DHT22;21300;52.006;5.798;2023-03-05T11:40:55;5.90;99.90
35127;DHT22;21300;52.006;5.798;2023-03-05T11:43:23;5.90;99.90
35127;DHT22;21300;52.006;5.798;2023-03-05T11:45:52;5.90;99.90
35127;DHT22;21300;52.006;5.798;2023-03-05T11:48:27;5.90;99.90
35127;DHT22;21300;52.006;5.798;2023-03-05T11:50:58;6.00;99.90
35127;DHT22;21300;52.006;5.798;2023-03-05T11:53:31;6.00;99.90
35127;DHT22;21300;52.006;5.798;2023-03-05T11:56:17;6.00;99.90
35127;DHT22;21300;52.006;5.798;2023-03-05T11:58:58;6.00;99.90
35127;DHT22;21300;52.006;5.798;2023-03-05T12:01:27;6.00;99.90
35127;DHT22;21300;52.006;5.798;2023-03-05T12:03:54;6.10;99.90
35127;DHT22;21300;52.006;5.798;2023-03-05T12:06:27;6.10;99.90
35127;DHT22;21300;52.006;5.798;2023-03-05T12:08:55;6.10;99.90
35127;DHT22;21300;52.006;5.798;2023-03-05T12:11:31;6.10;99.90
35127;DHT22;21300;52.006;5.798;2023-03-05T12:19:32;6.20;99.90
35127;DHT22;21300;52.006;5.798;2023-03-05T12:22:10;6.20;99.90
35127;DHT22;21300;52.006;5.798;2023-03-05T12:24:39;6.30;99.90
35127;DHT22;21300;52.006;5.798;2023-03-05T12:27:08;6.30;99.90
35127;DHT22;21300;52.006;5.798;2023-03-05T12:29:50;6.30;99.90
35127;DHT22;21300;52.006;5.798;2023-03-05T12:35:27;6.30;99.90
35127;DHT22;21300;52.006;5.798;2023-03-05T12:40:24;6.40;99.90
35127;DHT22;21300;52.006;5.798;2023-03-05T12:45:26;6.40;99.90
35127;DHT22;21300;52.006;5.798;2023-03-05T13:00:42;6.60;98.80
35127;DHT22;21300;52.006;5.798;2023-03-05T13:03:15;6.60;99.00
35127;DHT22;21300;52.006;5.798;2023-03-05T13:05:53;6.60;99.30
35127;DHT22;21300;52.006;5.798;2023-03-05T13:11:17;6.60;99.90
35127;DHT22;21300;52.006;5.798;2023-03-05T13:13:46;6.70;99.90
35127;DHT22;21300;52.006;5.798;2023-03-05T13:16:26;6.70;99.90
35127;DHT22;21300;52.006;5.798;2023-03-05T13:18:56;6.70;99.90
35127;DHT22;21300;52.006;5.798;2023-03-05T13:21:28;6.70;99.90
35127;DHT22;21300;52.006;5.798;2023-03-05T13:23:56;6.70;99.90
35127;DHT22;21300;52.006;5.798;2023-03-05T13:29:19;6.70;99.90
35127;DHT22;21300;52.006;5.798;2023-03-05T13:31:50;6.70;99.80
35127;DHT22;21300;52.006;5.798;2023-03-05T13:34:21;6.70;99.90
35127;DHT22;21300;52.006;5.798;2023-03-05T13:39:47;6.70;99.90
35127;DHT22;21300;52.006;5.798;2023-03-05T13:42:19;6.80;99.90
35127;DHT22;21300;52.006;5.798;2023-03-05T13:44:58;6.80;99.80
35127;DHT22;21300;52.006;5.798;2023-03-05T13:47:26;6.80;99.80
35127;DHT22;21300;52.006;5.798;2023-03-05T13:49:57;6.80;99.60
35127;DHT22;21300;52.006;5.798;2023-03-05T13:52:30;6.80;99.60
35127;DHT22;21300;52.006;5.798;2023-03-05T13:54:57;6.80;99.40
35127;DHT22;21300;52.006;5.798;2023-03-05T13:57:39;6.80;99.40
35127;DHT22;21300;52.006;5.798;2023-03-05T14:02:51;6.80;99.30
35127;DHT22;21300;52.006;5.798;2023-03-05T14:05:16;6.80;99.20
35127;DHT22;21300;52.006;5.798;2023-03-05T14:07:46;6.80;98.90
35127;DHT22;21300;52.006;5.798;2023-03-05T14:10:32;6.80;98.70
35127;DHT22;21300;52.006;5.798;2023-03-05T14:12:59;6.80;99.30
35127;DHT22;21300;52.006;5.798;2023-03-05T14:15:28;6.90;98.80
35127;DHT22;21300;52.006;5.798;2023-03-05T14:20:39;6.90;98.80
35127;DHT22;21300;52.006;5.798;2023-03-05T14:23:25;6.90;98.40
35127;DHT22;21300;52.006;5.798;2023-03-05T14:25:51;6.90;98.40
35127;DHT22;21300;52.006;5.798;2023-03-05T14:30:50;6.90;98.20
35127;DHT22;21300;52.006;5.798;2023-03-05T14:33:26;6.90;98.70
35127;DHT22;21300;52.006;5.798;2023-03-05T14:35:51;6.90;98.60
35127;DHT22;21300;52.006;5.798;2023-03-05T14:38:22;6.90;97.00
35127;DHT22;21300;52.006;5.798;2023-03-05T14:40:48;7.00;97.50
35127;DHT22;21300;52.006;5.798;2023-03-05T14:43:14;7.00;97.50
35127;DHT22;21300;52.006;5.798;2023-03-05T14:45:41;7.00;98.00
35127;DHT22;21300;52.006;5.798;2023-03-05T14:48:14;7.00;98.20
35127;DHT22;21300;52.006;5.798;2023-03-05T14:50:48;7.00;97.60
35127;DHT22;21300;52.006;5.798;2023-03-05T14:53:23;7.00;97.80
35127;DHT22;21300;52.006;5.798;2023-03-05T14:55:52;7.00;98.00
35127;DHT22;21300;52.006;5.798;2023-03-05T14:58:22;7.00;97.90
35127;DHT22;21300;52.006;5.798;2023-03-05T15:00:51;7.00;97.50
35127;DHT22;21300;52.006;5.798;2023-03-05T15:03:18;7.00;97.50
35127;DHT22;21300;52.006;5.798;2023-03-05T15:05:46;7.00;97.90
35127;DHT22;21300;52.006;5.798;2023-03-05T15:08:24;7.00;96.80
35127;DHT22;21300;52.006;5.798;2023-03-05T15:10:50;7.00;97.30
35127;DHT22;21300;52.006;5.798;2023-03-05T15:13:16;7.00;95.60
35127;DHT22;21300;52.006;5.798;2023-03-05T15:15:43;7.00;95.40
35127;DHT22;21300;52.006;5.798;2023-03-05T15:18:12;6.90;94.00
35127;DHT22;21300;52.006;5.798;2023-03-05T15:20:38;6.80;93.90
35127;DHT22;21300;52.006;5.798;2023-03-05T15:23:04;6.80;91.70
35127;DHT22;21300;52.006;5.798;2023-03-05T15:25:30;6.80;92.70
35127;DHT22;21300;52.006;5.798;2023-03-05T15:27:55;6.80;93.10
35127;DHT22;21300;52.006;5.798;2023-03-05T15:30:28;6.80;91.80
35127;DHT22;21300;52.006;5.798;2023-03-05T15:32:56;6.80;92.30
35127;DHT22;21300;52.006;5.798;2023-03-05T15:35:23;6.70;92.60
35127;DHT22;21300;52.006;5.798;2023-03-05T15:37:50;6.90;93.80
35127;DHT22;21300;52.006;5.798;2023-03-05T15:40:16;6.80;94.00
35127;DHT22;21300;52.006;5.798;2023-03-05T15:42:41;6.90;94.50
35127;DHT22;21300;52.006;5.798;2023-03-05T15:45:07;6.90;94.70
35127;DHT22;21300;52.006;5.798;2023-03-05T15:47:33;6.90;94.80
35127;DHT22;21300;52.006;5.798;2023-03-05T15:49:58;6.90;95.20
35127;DHT22;21300;52.006;5.798;2023-03-05T15:52:24;6.90;95.10
35127;DHT22;21300;52.006;5.798;2023-03-05T15:54:50;6.90;95.50
35127;DHT22;21300;52.006;5.798;2023-03-05T15:57:15;6.90;95.70
35127;DHT22;21300;52.006;5.798;2023-03-05T15:59:41;6.90;95.90
35127;DHT22;21300;52.006;5.798;2023-03-05T16:02:07;6.90;96.10
35127;DHT22;21300;52.006;5.798;2023-03-05T16:04:32;6.90;96.10
35127;DHT22;21300;52.006;5.798;2023-03-05T16:06:59;6.90;96.10
35127;DHT22;21300;52.006;5.798;2023-03-05T16:09:30;6.90;96.30
35127;DHT22;21300;52.006;5.798;2023-03-05T16:11:56;6.90;96.50
35127;DHT22;21300;52.006;5.798;2023-03-05T16:14:24;6.90;96.60
35127;DHT22;21300;52.006;5.798;2023-03-05T16:16:52;6.90;96.70
35127;DHT22;21300;52.006;5.798;2023-03-05T16:19:20;6.90;96.90
35127;DHT22;21300;52.006;5.798;2023-03-05T16:21:46;6.90;97.00
35127;DHT22;21300;52.006;5.798;2023-03-05T16:24:12;6.90;97.10
35127;DHT22;21300;52.006;5.798;2023-03-05T16:26:56;6.90;97.10
35127;DHT22;21300;52.006;5.798;2023-03-05T16:29:22;6.90;97.30
35127;DHT22;21300;52.006;5.798;2023-03-05T16:31:47;6.90;97.40
35127;DHT22;21300;52.006;5.798;2023-03-05T16:34:13;6.90;97.50
35127;DHT22;21300;52.006;5.798;2023-03-05T16:36:45;6.90;97.60
35127;DHT22;21300;52.006;5.798;2023-03-05T16:39:11;6.90;97.70
35127;DHT22;21300;52.006;5.798;2023-03-05T16:41:37;6.90;97.70
35127;DHT22;21300;52.006;5.798;2023-03-05T16:44:02;6.80;97.80
35127;DHT22;21300;52.006;5.798;2023-03-05T16:46:29;6.90;97.90
35127;DHT22;21300;52.006;5.798;2023-03-05T16:48:55;6.90;98.00
35127;DHT22;21300;52.006;5.798;2023-03-05T16:51:22;6.90;98.00
35127;DHT22;21300;52.006;5.798;2023-03-05T16:53:47;6.60;96.20
35127;DHT22;21300;52.006;5.798;2023-03-05T16:56:13;6.60;96.90
35127;DHT22;21300;52.006;5.798;2023-03-05T16:58:39;6.60;97.30
35127;DHT22;21300;52.006;5.798;2023-03-05T17:01:10;6.70;97.50
35127;DHT22;21300;52.006;5.798;2023-03-05T17:03:36;6.70;97.60
35127;DHT22;21300;52.006;5.798;2023-03-05T17:06:13;6.70;97.70
35127;DHT22;21300;52.006;5.798;2023-03-05T17:08:40;6.70;97.90
35127;DHT22;21300;52.006;5.798;2023-03-05T17:11:06;6.70;98.00
35127;DHT22;21300;52.006;5.798;2023-03-05T17:13:32;6.70;98.10